KBTP/BTP METAR and TAF weather

Enter ICAO airport designator
Station Type Date Time Source
KBTP METAR 2018/04/21 10:56 UTC NOAA

KBTP 211056Z AUTO 00000KT 10SM CLR M03/M05 A3046 RMK AO2 SLP331 T10281050 FZRANO


Station Type Date Time Source
KBTP Decoded METAR 2018/04/21 10:56 UTC NOAA

Butler, Butler County Airport/K W Scholter Field, PA, United States (KBTP) 40-47N 079-57W
Apr 21, 2018 - 06:56 AM EDT / 2018.04.21 1056 UTC
Wind: Calm:0
Visibility: 10 mile(s):0
Sky conditions: clear
Temperature: 27.0 F (-2.8 C)
Dew Point: 23.0 F (-5.0 C)
Relative Humidity: 84%
Pressure (altimeter): 30.46 in. Hg (1031 hPa)
ob: KBTP 211056Z AUTO 00000KT 10SM CLR M03/M05 A3046 RMK AO2 SLP331 T10281050 FZRANO
cycle: 11

Station Type Date Time Source
KBTP TAF UTC NOAA

Error!


Example: see airport list